createdAt,value
2022-12-01T00:01:17.808Z,98135.31
2022-12-01T00:03:44.522Z,98138.84
2022-12-01T00:06:16.468Z,98139.59
2022-12-01T00:09:04.731Z,98135.31
2022-12-01T00:11:32.395Z,98140.22
2022-12-01T00:14:01.040Z,98136.31
2022-12-01T00:16:28.229Z,98151.22
2022-12-01T00:18:55.023Z,98138.09
2022-12-01T00:21:23.713Z,98136.75
2022-12-01T00:23:52.974Z,98140.75
2022-12-01T00:26:21.258Z,98133.97
2022-12-01T00:28:52.862Z,98135.50
2022-12-01T00:31:20.199Z,98134.63
2022-12-01T00:33:46.965Z,98155.75
2022-12-01T00:36:13.715Z,98151.22
2022-12-01T00:38:40.371Z,98139.16
2022-12-01T00:41:07.113Z,98154.91
2022-12-01T00:43:34.056Z,98159.25
2022-12-01T00:46:00.770Z,98153.09
2022-12-01T00:48:27.555Z,98159.78
2022-12-01T00:50:55.643Z,98157.03
2022-12-01T00:53:23.409Z,98156.03
2022-12-01T00:55:50.120Z,98157.47
2022-12-01T00:58:16.922Z,98154.88
2022-12-01T01:00:47.458Z,98152.44
2022-12-01T01:03:14.387Z,98158.47
2022-12-01T01:05:43.308Z,98157.22
2022-12-01T01:08:12.371Z,98151.63
2022-12-01T01:10:43.513Z,98149.66
2022-12-01T01:13:10.614Z,98152.44
2022-12-01T01:15:38.190Z,98152.56
2022-12-01T01:18:05.383Z,98155.56
2022-12-01T01:20:32.484Z,98149.97
2022-12-01T01:22:59.249Z,98148.91
2022-12-01T01:25:25.892Z,98138.69
2022-12-01T01:27:52.574Z,98143.88
2022-12-01T01:30:19.770Z,98134.50
2022-12-01T01:32:46.379Z,98144.78
2022-12-01T01:35:13.035Z,98140.34
2022-12-01T01:37:39.897Z,98136.03
2022-12-01T01:40:07.272Z,98136.84
2022-12-01T01:42:33.928Z,98133.31
2022-12-01T01:45:00.581Z,98141.72
2022-12-01T01:47:35.004Z,98146.47
2022-12-01T01:50:09.784Z,98139.44
2022-12-01T01:52:41.590Z,98140.22
2022-12-01T01:55:09.098Z,98154.28
2022-12-01T01:57:36.424Z,98149.00
2022-12-01T02:00:15.600Z,98149.84
2022-12-01T02:02:45.797Z,98152.44
2022-12-01T02:05:24.973Z,98146.25
2022-12-01T02:07:54.019Z,98148.91
2022-12-01T02:10:24.271Z,98154.78
2022-12-01T02:13:14.067Z,98155.47
2022-12-01T02:15:46.716Z,98152.47
2022-12-01T02:18:25.565Z,98147.78
2022-12-01T02:21:01.967Z,98160.16
2022-12-01T02:23:53.417Z,98156.81
2022-12-01T02:26:44.067Z,98153.06
2022-12-01T02:29:29.056Z,98149.78
2022-12-01T02:32:02.796Z,98156.66
2022-12-01T02:34:43.747Z,98157.50
2022-12-01T02:37:34.161Z,98160.34
2022-12-01T02:40:11.011Z,98150.84
2022-12-01T02:43:24.300Z,98156.31
2022-12-01T02:46:12.773Z,98151.78
2022-12-01T02:48:43.081Z,98156.47
2022-12-01T02:51:15.928Z,98158.16
2022-12-01T02:53:43.233Z,98153.78
2022-12-01T02:56:12.668Z,98156.97
2022-12-01T02:58:39.364Z,98154.56
2022-12-01T03:01:25.013Z,98151.84
2022-12-01T03:04:00.888Z,98142.47
2022-12-01T03:06:39.434Z,98144.31
2022-12-01T03:09:09.349Z,98143.16
2022-12-01T03:11:46.773Z,98141.22
2022-12-01T03:14:40.004Z,98139.72
2022-12-01T03:17:16.306Z,98138.88
2022-12-01T03:19:50.892Z,98139.81
2022-12-01T03:22:25.785Z,98142.47
2022-12-01T03:24:56.001Z,98140.72
2022-12-01T03:27:28.682Z,98138.22
2022-12-01T03:30:00.442Z,98143.34
2022-12-01T03:32:37.048Z,98139.88
2022-12-01T03:35:13.042Z,98139.88
2022-12-01T03:37:58.030Z,98141.56
2022-12-01T03:40:27.305Z,98134.69
2022-12-01T03:43:04.739Z,98145.53
2022-12-01T03:45:58.235Z,98136.38
2022-12-01T03:48:25.852Z,98131.94
2022-12-01T03:51:17.335Z,98141.56
2022-12-01T03:53:48.605Z,98150.25
2022-12-01T03:56:20.662Z,98142.47
2022-12-01T03:58:51.116Z,98147.00
2022-12-01T04:01:18.606Z,98143.72
2022-12-01T04:03:47.647Z,98147.06
2022-12-01T04:06:15.211Z,98139.22
2022-12-01T04:08:41.824Z,98144.31
2022-12-01T04:11:32.267Z,98145.25
2022-12-01T04:13:59.768Z,98137.75
2022-12-01T04:16:26.446Z,98136.09
2022-12-01T04:18:53.094Z,98140.22
2022-12-01T04:21:20.009Z,98132.41
2022-12-01T04:24:02.513Z,98137.63
2022-12-01T04:26:36.332Z,98125.03
2022-12-01T04:29:06.843Z,98124.81
2022-12-01T04:31:33.700Z,98129.34
2022-12-01T04:34:01.209Z,98120.78
2022-12-01T04:36:31.244Z,98128.47
2022-12-01T04:38:58.272Z,98123.69
2022-12-01T04:41:25.078Z,98120.56
2022-12-01T04:43:55.778Z,98122.09
2022-12-01T04:46:23.448Z,98128.22
2022-12-01T04:48:50.923Z,98120.06
2022-12-01T04:51:18.124Z,98125.25
2022-12-01T04:53:45.190Z,98120.22
2022-12-01T04:56:12.043Z,98126.25
2022-12-01T04:58:39.020Z,98128.00
2022-12-01T05:01:10.323Z,98123.59
2022-12-01T05:03:42.910Z,98125.41
2022-12-01T05:06:12.136Z,98130.44
2022-12-01T05:08:38.774Z,98126.94
2022-12-01T05:11:07.968Z,98123.06
2022-12-01T05:13:42.067Z,98128.72
2022-12-01T05:16:12.210Z,98139.56
2022-12-01T05:18:39.548Z,98138.63
2022-12-01T05:21:08.130Z,98136.22
2022-12-01T05:23:36.450Z,98136.50
2022-12-01T05:26:04.783Z,98137.50
2022-12-01T05:28:31.644Z,98130.69
2022-12-01T05:30:58.355Z,98129.72
2022-12-01T05:33:26.357Z,98133.25
2022-12-01T05:35:53.696Z,98135.97
2022-12-01T05:38:21.102Z,98130.97
2022-12-01T05:40:55.261Z,98133.16
2022-12-01T05:43:28.696Z,98132.63
2022-12-01T05:45:56.970Z,98141.41
2022-12-01T05:48:24.246Z,98136.44
2022-12-01T05:50:51.303Z,98133.72
2022-12-01T05:53:18.658Z,98140.56
2022-12-01T05:55:45.578Z,98137.22
2022-12-01T05:58:12.752Z,98141.19
2022-12-01T06:00:45.405Z,98139.50
2022-12-01T06:03:13.539Z,98143.00
2022-12-01T06:05:40.796Z,98139.59
2022-12-01T06:08:07.815Z,98148.44
2022-12-01T06:10:35.257Z,98151.97
2022-12-01T06:13:02.527Z,98139.69
2022-12-01T06:15:29.169Z,98145.91
2022-12-01T06:17:59.411Z,98148.97
2022-12-01T06:20:26.607Z,98149.13
2022-12-01T06:22:53.265Z,98150.19
2022-12-01T06:25:19.997Z,98158.53
2022-12-01T06:27:47.110Z,98158.97
2022-12-01T06:30:13.915Z,98154.78
2022-12-01T06:32:40.548Z,98153.13
2022-12-01T06:35:07.660Z,98159.22
2022-12-01T06:37:34.395Z,98164.41
2022-12-01T06:40:01.305Z,98157.69
2022-12-01T06:42:30.577Z,98172.59
2022-12-01T06:44:57.204Z,98176.31
2022-12-01T06:47:23.855Z,98178.44
2022-12-01T06:49:50.853Z,98178.78
2022-12-01T06:52:17.789Z,98180.28
2022-12-01T06:54:44.453Z,98181.50
2022-12-01T06:57:11.692Z,98189.38
2022-12-01T06:59:38.510Z,98188.38
2022-12-01T07:02:05.217Z,98186.69
2022-12-01T07:04:32.048Z,98184.50
2022-12-01T07:06:58.635Z,98190.84
2022-12-01T07:09:25.402Z,98188.69
2022-12-01T07:11:52.074Z,98190.19
2022-12-01T07:14:24.586Z,98192.97
2022-12-01T07:16:51.527Z,98198.00
2022-12-01T07:19:18.455Z,98193.88
2022-12-01T07:21:45.264Z,98202.88
2022-12-01T07:24:14.752Z,98194.34
2022-12-01T07:26:42.412Z,98205.72
2022-12-01T07:29:10.241Z,98201.34
2022-12-01T07:31:38.434Z,98207.47
2022-12-01T07:34:06.177Z,98206.88
2022-12-01T07:36:32.890Z,98209.31
2022-12-01T07:39:00.167Z,98211.91
2022-12-01T07:41:27.084Z,98213.56
2022-12-01T07:43:55.587Z,98209.31
2022-12-01T07:46:26.231Z,98212.97
2022-12-01T07:48:54.883Z,98214.00
2022-12-01T07:51:22.608Z,98208.69
2022-12-01T07:53:51.089Z,98216.47
2022-12-01T07:56:18.827Z,98212.81
2022-12-01T07:58:45.677Z,98215.09
2022-12-01T08:01:17.424Z,98211.59
2022-12-01T08:03:44.512Z,98207.25
2022-12-01T08:06:11.972Z,98210.38
2022-12-01T08:08:41.089Z,98214.34
2022-12-01T08:11:16.847Z,98216.63
2022-12-01T08:13:43.892Z,98214.78
2022-12-01T08:16:13.635Z,98216.16
2022-12-01T08:18:41.731Z,98216.78
2022-12-01T08:21:11.083Z,98211.84
2022-12-01T08:23:37.906Z,98217.50
2022-12-01T08:26:07.200Z,98224.31
2022-12-01T08:28:36.487Z,98221.63
2022-12-01T08:31:13.729Z,98217.03
2022-12-01T08:33:40.622Z,98221.22
2022-12-01T08:36:07.810Z,98222.75
2022-12-01T08:38:34.638Z,98231.31
2022-12-01T08:41:07.100Z,98227.72
2022-12-01T08:43:56.536Z,98230.13
2022-12-01T08:46:21.203Z,98230.44
2022-12-01T08:48:47.955Z,98232.31
2022-12-01T08:51:16.779Z,98239.78
2022-12-01T08:53:46.044Z,98234.75
2022-12-01T08:56:21.672Z,98239.34
2022-12-01T08:58:48.872Z,98241.59
2022-12-01T09:01:17.174Z,98240.72
2022-12-01T09:03:44.689Z,98242.53
2022-12-01T09:06:23.180Z,98237.53
2022-12-01T09:08:49.833Z,98239.88
2022-12-01T09:11:19.025Z,98248.97
2022-12-01T09:13:51.313Z,98235.41
2022-12-01T09:16:20.087Z,98233.72
2022-12-01T09:18:47.649Z,98232.22
2022-12-01T09:21:16.906Z,98230.88
2022-12-01T09:23:43.950Z,98232.66
2022-12-01T09:26:13.777Z,98226.53
2022-12-01T09:28:40.818Z,98228.06
2022-12-01T09:31:10.417Z,98234.94
2022-12-01T09:33:37.790Z,98224.00
2022-12-01T09:36:05.723Z,98234.41
2022-12-01T09:38:34.366Z,98237.72
2022-12-01T09:41:05.834Z,98236.38
2022-12-01T09:43:54.050Z,98237.41
2022-12-01T09:46:26.153Z,98230.88
2022-12-01T09:48:57.425Z,98235.91
2022-12-01T09:51:28.212Z,98221.88
2022-12-01T09:53:58.919Z,98230.63
2022-12-01T09:56:42.654Z,98222.75
2022-12-01T09:59:17.913Z,98228.94
2022-12-01T10:01:48.213Z,98217.97
2022-12-01T10:04:17.982Z,98219.53
2022-12-01T10:07:24.294Z,98219.19
2022-12-01T10:09:59.860Z,98211.38
2022-12-01T10:12:32.279Z,98212.03
2022-12-01T10:15:14.172Z,98211.72
2022-12-01T10:18:05.112Z,98202.59
2022-12-01T10:20:43.207Z,98200.81
2022-12-01T10:23:44.213Z,98203.34
2022-12-01T10:26:17.875Z,98204.34
2022-12-01T10:28:59.874Z,98199.50
2022-12-01T10:31:35.710Z,98202.09
2022-12-01T10:34:08.012Z,98188.41
2022-12-01T10:36:34.846Z,98194.44
2022-12-01T10:39:04.448Z,98188.91
2022-12-01T10:41:35.483Z,98188.09
2022-12-01T10:44:05.545Z,98186.75
2022-12-01T10:46:54.700Z,98180.34
2022-12-01T10:49:36.482Z,98176.00
2022-12-01T10:52:03.865Z,98173.25
2022-12-01T10:54:40.818Z,98172.81
2022-12-01T10:57:16.917Z,98174.47
2022-12-01T10:59:49.868Z,98170.78
2022-12-01T11:02:19.699Z,98178.50
2022-12-01T11:04:54.007Z,98171.72
2022-12-01T11:07:20.725Z,98177.69
2022-12-01T11:10:02.613Z,98176.91
2022-12-01T11:12:29.811Z,98164.44
2022-12-01T11:14:58.286Z,98176.59
2022-12-01T11:17:41.431Z,98162.16
2022-12-01T11:20:32.669Z,98168.28
2022-12-01T11:23:21.052Z,98161.63
2022-12-01T11:26:12.542Z,98156.94
2022-12-01T11:29:03.848Z,98157.78
2022-12-01T11:31:49.466Z,98154.03
2022-12-01T11:34:20.711Z,98158.88
2022-12-01T11:36:50.868Z,98151.16
2022-12-01T11:39:35.315Z,98158.03
2022-12-01T11:42:21.449Z,98162.59
2022-12-01T11:44:52.754Z,98155.88
2022-12-01T11:47:23.992Z,98164.81
2022-12-01T11:50:00.092Z,98162.22
2022-12-01T11:52:36.480Z,98160.56
2022-12-01T11:55:22.185Z,98151.16
2022-12-01T11:57:52.026Z,98165.44
2022-12-01T12:00:25.332Z,98156.53
2022-12-01T12:03:05.074Z,98159.38
2022-12-01T12:05:34.483Z,98153.66
2022-12-01T12:08:09.828Z,98157.03
2022-12-01T12:10:58.057Z,98155.19
2022-12-01T12:13:33.983Z,98154.44
2022-12-01T12:16:11.278Z,98149.16
2022-12-01T12:18:49.696Z,98147.50
2022-12-01T12:22:13.619Z,98143.50
2022-12-01T12:24:46.881Z,98141.41
2022-12-01T12:27:31.585Z,98139.56
2022-12-01T12:30:10.103Z,98145.13
2022-12-01T12:33:02.315Z,98135.56
2022-12-01T12:35:44.656Z,98142.03
2022-12-01T12:38:36.379Z,98140.00
2022-12-01T12:41:36.080Z,98140.00
2022-12-01T12:44:20.292Z,98141.78
2022-12-01T12:47:17.953Z,98142.78
2022-12-01T12:49:53.584Z,98142.69
2022-12-01T12:52:31.064Z,98141.09
2022-12-01T12:55:04.409Z,98134.81
2022-12-01T12:57:41.126Z,98137.72
2022-12-01T13:00:16.085Z,98148.47
2022-12-01T13:02:48.863Z,98142.69
2022-12-01T13:05:28.641Z,98136.06
2022-12-01T13:08:00.985Z,98140.09
2022-12-01T13:10:47.296Z,98136.88
2022-12-01T13:13:20.426Z,98137.41
2022-12-01T13:15:50.457Z,98132.78
2022-12-01T13:18:23.302Z,98128.34
2022-12-01T13:20:52.225Z,98137.22
2022-12-01T13:23:21.845Z,98125.91
2022-12-01T13:25:55.844Z,98122.63
2022-12-01T13:28:27.764Z,98125.84
2022-12-01T13:31:10.941Z,98119.28
2022-12-01T13:33:45.139Z,98116.59
2022-12-01T13:36:45.132Z,98118.56
2022-12-01T13:39:07.313Z,98129.34
2022-12-01T13:41:38.529Z,98130.03
2022-12-01T13:44:20.059Z,98135.47
2022-12-01T13:46:46.948Z,98141.44
2022-12-01T13:49:33.530Z,98131.19
2022-12-01T13:52:21.996Z,98122.63
2022-12-01T13:55:10.749Z,98124.16
2022-12-01T13:57:56.280Z,98126.09
2022-12-01T14:00:27.287Z,98127.75
2022-12-01T14:03:12.417Z,98124.31
2022-12-01T14:05:42.142Z,98127.69
2022-12-01T14:08:24.691Z,98120.66
2022-12-01T14:11:28.050Z,98117.28
2022-12-01T14:14:03.099Z,98117.28
2022-12-01T14:16:46.862Z,98117.44
2022-12-01T14:19:35.156Z,98114.22
2022-12-01T14:22:04.648Z,98118.69
2022-12-01T14:24:41.952Z,98114.16
2022-12-01T14:27:11.870Z,98108.06
2022-12-01T14:29:43.059Z,98110.47
2022-12-01T14:32:10.334Z,98114.69
2022-12-01T14:34:38.736Z,98110.56
2022-12-01T14:37:07.845Z,98106.94
2022-12-01T14:39:37.986Z,98107.72
2022-12-01T14:42:10.550Z,98107.88
2022-12-01T14:44:50.182Z,98110.41
2022-12-01T14:47:23.158Z,98110.31
2022-12-01T14:49:52.385Z,98107.13
2022-12-01T14:52:33.736Z,98108.97
2022-12-01T14:55:04.778Z,98110.56
2022-12-01T14:57:39.991Z,98114.09
2022-12-01T15:00:15.305Z,98110.72
2022-12-01T15:02:55.682Z,98112.56
2022-12-01T15:05:27.223Z,98115.94
2022-12-01T15:08:33.140Z,98113.41
2022-12-01T15:10:56.530Z,98118.78
2022-12-01T15:13:30.682Z,98118.19
2022-12-01T15:16:02.642Z,98123.38
2022-12-01T15:18:30.772Z,98122.44
2022-12-01T15:21:04.032Z,98121.25
2022-12-01T15:23:30.790Z,98128.00
2022-12-01T15:25:57.792Z,98117.25
2022-12-01T15:28:35.577Z,98125.03
2022-12-01T15:31:11.982Z,98116.41
2022-12-01T15:33:46.847Z,98120.44
2022-12-01T15:36:14.130Z,98117.84
2022-12-01T15:38:42.771Z,98120.59
2022-12-01T15:41:29.008Z,98120.69
2022-12-01T15:44:05.751Z,98116.09
2022-12-01T15:46:36.998Z,98117.69
2022-12-01T15:49:19.460Z,98110.22
2022-12-01T15:51:48.415Z,98117.25
2022-12-01T15:54:23.161Z,98114.91
2022-12-01T15:56:59.172Z,98106.28
2022-12-01T15:59:36.836Z,98109.56
2022-12-01T16:02:33.365Z,98103.44
2022-12-01T16:05:09.232Z,98109.88
2022-12-01T16:08:11.988Z,98110.47
2022-12-01T16:10:35.206Z,98115.72
2022-12-01T16:13:35.531Z,98113.06
2022-12-01T16:16:54.555Z,98119.84
2022-12-01T16:19:26.405Z,98113.75
2022-12-01T16:22:00.994Z,98116.50
2022-12-01T16:24:34.312Z,98113.88
2022-12-01T16:27:15.893Z,98114.06
2022-12-01T16:29:51.640Z,98111.63
2022-12-01T16:32:44.769Z,98112.28
2022-12-01T16:35:26.471Z,98110.53
2022-12-01T16:37:55.420Z,98111.38
2022-12-01T16:41:08.703Z,98116.84
2022-12-01T16:43:35.319Z,98112.22
2022-12-01T16:46:06.222Z,98115.72
2022-12-01T16:48:34.897Z,98116.66
2022-12-01T16:51:03.545Z,98115.91
2022-12-01T16:53:30.224Z,98122.09
2022-12-01T16:55:59.659Z,98121.09
2022-12-01T16:58:26.593Z,98127.06
2022-12-01T17:00:53.755Z,98122.78
2022-12-01T17:03:24.106Z,98127.81
2022-12-01T17:05:51.650Z,98121.09
2022-12-01T17:08:19.442Z,98121.84
2022-12-01T17:10:50.223Z,98135.69
2022-12-01T17:13:17.783Z,98124.44
2022-12-01T17:15:48.944Z,98121.84
2022-12-01T17:18:17.750Z,98129.47
2022-12-01T17:20:55.538Z,98126.13
2022-12-01T17:23:22.106Z,98124.97
2022-12-01T17:25:49.624Z,98130.16
2022-12-01T17:28:16.249Z,98126.75
2022-12-01T17:30:42.987Z,98132.78
2022-12-01T17:33:09.731Z,98132.78
2022-12-01T17:35:38.209Z,98130.06
2022-12-01T17:38:05.576Z,98136.88
2022-12-01T17:40:32.666Z,98136.03
2022-12-01T17:43:00.167Z,98134.19
2022-12-01T17:45:26.853Z,98127.31
2022-12-01T17:47:54.668Z,98132.34
2022-12-01T17:50:21.621Z,98136.38
2022-12-01T17:52:48.224Z,98140.56
2022-12-01T17:55:15.039Z,98138.03
2022-12-01T17:57:41.589Z,98137.13
2022-12-01T18:00:09.079Z,98138.03
2022-12-01T18:02:35.962Z,98137.78
2022-12-01T18:05:02.848Z,98138.56
2022-12-01T18:07:29.644Z,98136.19
2022-12-01T18:09:56.371Z,98137.72
2022-12-01T18:12:22.988Z,98138.47
2022-12-01T18:14:50.355Z,98128.84
2022-12-01T18:17:17.230Z,98132.19
2022-12-01T18:19:44.101Z,98132.34
2022-12-01T18:22:10.722Z,98140.16
2022-12-01T18:24:37.726Z,98140.91
2022-12-01T18:27:04.737Z,98138.47
2022-12-01T18:29:31.433Z,98142.75
2022-12-01T18:31:59.364Z,98144.34
2022-12-01T18:34:29.443Z,98134.78
2022-12-01T18:36:56.713Z,98137.38
2022-12-01T18:39:23.551Z,98134.69
2022-12-01T18:41:50.581Z,98137.81
2022-12-01T18:44:17.238Z,98137.88
2022-12-01T18:46:43.919Z,98144.69
2022-12-01T18:49:11.649Z,98132.63
2022-12-01T18:51:39.032Z,98140.34
2022-12-01T18:54:08.020Z,98142.09
2022-12-01T18:56:34.950Z,98137.31
2022-12-01T18:59:04.968Z,98139.16
2022-12-01T19:01:36.604Z,98132.69
2022-12-01T19:04:03.776Z,98136.81
2022-12-01T19:06:32.302Z,98137.22
2022-12-01T19:09:00.986Z,98139.97
2022-12-01T19:11:28.636Z,98133.19
2022-12-01T19:13:56.406Z,98139.13
2022-12-01T19:16:24.019Z,98142.66
2022-12-01T19:18:50.992Z,98139.91
2022-12-01T19:21:19.645Z,98139.72
2022-12-01T19:23:47.293Z,98146.56
2022-12-01T19:26:19.001Z,98146.63
2022-12-01T19:28:46.510Z,98150.28
2022-12-01T19:31:19.895Z,98144.25
2022-12-01T19:33:46.747Z,98150.38
2022-12-01T19:36:17.013Z,98147.03
2022-12-01T19:38:44.638Z,98139.06
2022-12-01T19:41:12.989Z,98147.19
2022-12-01T19:43:39.729Z,98142.81
2022-12-01T19:46:15.760Z,98146.41
2022-12-01T19:48:44.861Z,98143.81
2022-12-01T19:51:23.133Z,98139.50
2022-12-01T19:53:49.994Z,98148.88
2022-12-01T19:56:16.608Z,98144.44
2022-12-01T19:58:43.414Z,98139.06
2022-12-01T20:01:13.319Z,98140.91
2022-12-01T20:03:42.270Z,98139.38
2022-12-01T20:06:15.061Z,98143.69
2022-12-01T20:08:42.475Z,98144.25
2022-12-01T20:11:09.350Z,98139.06
2022-12-01T20:13:38.150Z,98135.53
2022-12-01T20:16:08.162Z,98139.25
2022-12-01T20:18:34.900Z,98138.25
2022-12-01T20:21:12.829Z,98136.28
2022-12-01T20:23:39.480Z,98135.53
2022-12-01T20:26:07.390Z,98140.59
2022-12-01T20:28:35.952Z,98141.25
2022-12-01T20:31:03.998Z,98140.41
2022-12-01T20:33:30.701Z,98143.84
2022-12-01T20:35:57.326Z,98134.38
2022-12-01T20:38:27.638Z,98143.84
2022-12-01T20:40:55.017Z,98133.69
2022-12-01T20:43:22.166Z,98139.00
2022-12-01T20:45:49.017Z,98139.91
2022-12-01T20:48:16.720Z,98139.97
2022-12-01T20:50:43.884Z,98145.16
2022-12-01T20:53:11.199Z,98141.84
2022-12-01T20:55:38.701Z,98138.38
2022-12-01T20:58:10.053Z,98137.38
2022-12-01T21:00:39.104Z,98137.22
2022-12-01T21:03:06.123Z,98134.69
2022-12-01T21:05:33.260Z,98136.47
2022-12-01T21:08:01.123Z,98140.84
2022-12-01T21:10:28.200Z,98140.59
2022-12-01T21:13:18.084Z,98132.69
2022-12-01T21:15:58.745Z,98130.34
2022-12-01T21:18:41.398Z,98137.13
2022-12-01T21:21:21.309Z,98127.75
2022-12-01T21:23:58.789Z,98127.66
2022-12-01T21:26:26.270Z,98129.44
2022-12-01T21:28:55.758Z,98130.34
2022-12-01T21:31:22.358Z,98125.13
2022-12-01T21:33:49.017Z,98129.44
2022-12-01T21:36:18.518Z,98124.06
2022-12-01T21:38:46.316Z,98125.13
2022-12-01T21:41:24.953Z,98127.50
2022-12-01T21:43:55.575Z,98129.25
2022-12-01T21:46:22.512Z,98129.34
2022-12-01T21:48:49.778Z,98128.69
2022-12-01T21:51:25.401Z,98129.34
2022-12-01T21:53:55.804Z,98127.41
2022-12-01T21:56:26.593Z,98130.28
2022-12-01T21:58:58.830Z,98128.69
2022-12-01T22:01:32.805Z,98128.69
2022-12-01T22:04:02.587Z,98127.66
2022-12-01T22:06:39.279Z,98128.50
2022-12-01T22:09:20.040Z,98124.91
2022-12-01T22:11:52.327Z,98123.31
2022-12-01T22:14:22.582Z,98120.13
2022-12-01T22:16:59.258Z,98140.16
2022-12-01T22:19:30.675Z,98125.31
2022-12-01T22:22:02.866Z,98128.84
2022-12-01T22:24:37.174Z,98125.38
2022-12-01T22:27:14.461Z,98127.91
2022-12-01T22:29:46.479Z,98124.56
2022-12-01T22:32:13.069Z,98121.97
2022-12-01T22:34:49.256Z,98120.03
2022-12-01T22:37:22.592Z,98115.75
2022-12-01T22:39:54.555Z,98114.91
2022-12-01T22:42:31.223Z,98111.38
2022-12-01T22:45:26.606Z,98108.91
2022-12-01T22:48:02.046Z,98114.16
2022-12-01T22:50:31.794Z,98115.84
2022-12-01T22:53:18.053Z,98115.09
2022-12-01T22:55:44.765Z,98111.72
2022-12-01T22:58:23.360Z,98115.09
2022-12-01T23:00:50.056Z,98103.69
2022-12-01T23:03:16.673Z,98100.34
2022-12-01T23:05:44.644Z,98093.31
2022-12-01T23:08:18.648Z,98101.25
2022-12-01T23:10:45.232Z,98090.78
2022-12-01T23:13:24.812Z,98085.25
2022-12-01T23:15:55.719Z,98087.09
2022-12-01T23:18:28.750Z,98075.88
2022-12-01T23:21:02.091Z,98079.69
2022-12-01T23:23:32.028Z,98057.56
2022-12-01T23:26:01.185Z,98069.41
2022-12-01T23:28:29.473Z,98067.72
2022-12-01T23:30:58.384Z,98058.00
2022-12-01T23:33:28.594Z,98056.50
2022-12-01T23:36:17.014Z,98057.44
2022-12-01T23:38:46.763Z,98055.72
2022-12-01T23:41:30.980Z,98052.38
2022-12-01T23:44:00.698Z,98045.78
2022-12-01T23:46:28.455Z,98037.13
2022-12-01T23:49:01.246Z,98046.03
2022-12-01T23:51:35.591Z,98034.69
2022-12-01T23:54:16.663Z,98042.66
2022-12-01T23:56:45.451Z,98041.16
2022-12-01T23:59:13.416Z,98044.50
